sensor_id;sensor_type;location;lat;lon;timestamp;P1;durP1;ratioP1;P2;durP2;ratioP2
70433;SDS011;57876;47.792;12.960;2023-09-30T00:00:29;5.77;;;1.90;;
70433;SDS011;57876;47.792;12.960;2023-09-30T00:02:53;4.67;;;1.57;;
70433;SDS011;57876;47.792;12.960;2023-09-30T00:05:18;5.63;;;1.80;;
70433;SDS011;57876;47.792;12.960;2023-09-30T00:07:45;6.18;;;1.60;;
70433;SDS011;57876;47.792;12.960;2023-09-30T00:10:10;5.20;;;1.80;;
70433;SDS011;57876;47.792;12.960;2023-09-30T00:12:35;5.63;;;1.70;;
70433;SDS011;57876;47.792;12.960;2023-09-30T00:14:59;4.87;;;1.57;;
70433;SDS011;57876;47.792;12.960;2023-09-30T00:17:23;5.10;;;1.70;;
70433;SDS011;57876;47.792;12.960;2023-09-30T00:19:48;5.40;;;1.70;;
70433;SDS011;57876;47.792;12.960;2023-09-30T00:22:12;4.87;;;1.50;;
70433;SDS011;57876;47.792;12.960;2023-09-30T00:24:37;5.23;;;1.33;;
70433;SDS011;57876;47.792;12.960;2023-09-30T00:27:01;5.35;;;1.42;;
70433;SDS011;57876;47.792;12.960;2023-09-30T00:29:26;5.67;;;1.70;;
70433;SDS011;57876;47.792;12.960;2023-09-30T00:31:50;5.07;;;1.60;;
70433;SDS011;57876;47.792;12.960;2023-09-30T00:34:15;5.35;;;1.85;;
70433;SDS011;57876;47.792;12.960;2023-09-30T00:36:39;4.80;;;1.73;;
70433;SDS011;57876;47.792;12.960;2023-09-30T00:39:03;4.50;;;1.43;;
70433;SDS011;57876;47.792;12.960;2023-09-30T00:41:28;4.73;;;1.50;;
70433;SDS011;57876;47.792;12.960;2023-09-30T00:43:52;4.73;;;1.50;;
70433;SDS011;57876;47.792;12.960;2023-09-30T00:48:53;4.77;;;1.50;;
70433;SDS011;57876;47.792;12.960;2023-09-30T00:51:19;4.50;;;1.42;;
70433;SDS011;57876;47.792;12.960;2023-09-30T00:53:44;5.28;;;1.63;;
70433;SDS011;57876;47.792;12.960;2023-09-30T00:56:08;4.77;;;1.60;;
70433;SDS011;57876;47.792;12.960;2023-09-30T00:58:34;5.22;;;1.50;;
70433;SDS011;57876;47.792;12.960;2023-09-30T01:00:59;5.27;;;1.57;;
70433;SDS011;57876;47.792;12.960;2023-09-30T01:03:24;4.82;;;1.45;;
70433;SDS011;57876;47.792;12.960;2023-09-30T01:05:49;4.77;;;1.40;;
70433;SDS011;57876;47.792;12.960;2023-09-30T01:08:13;5.03;;;1.50;;
70433;SDS011;57876;47.792;12.960;2023-09-30T01:10:38;4.63;;;1.40;;
70433;SDS011;57876;47.792;12.960;2023-09-30T01:13:02;4.80;;;1.50;;
70433;SDS011;57876;47.792;12.960;2023-09-30T01:15:28;5.50;;;1.50;;
70433;SDS011;57876;47.792;12.960;2023-09-30T01:17:53;5.05;;;1.48;;
70433;SDS011;57876;47.792;12.960;2023-09-30T01:20:17;4.57;;;1.50;;
70433;SDS011;57876;47.792;12.960;2023-09-30T01:22:43;5.28;;;1.80;;
70433;SDS011;57876;47.792;12.960;2023-09-30T01:25:09;5.25;;;1.73;;
70433;SDS011;57876;47.792;12.960;2023-09-30T01:27:33;4.80;;;1.50;;
70433;SDS011;57876;47.792;12.960;2023-09-30T01:29:58;5.15;;;1.60;;
70433;SDS011;57876;47.792;12.960;2023-09-30T01:32:23;4.97;;;1.83;;
70433;SDS011;57876;47.792;12.960;2023-09-30T01:34:47;4.97;;;1.40;;
70433;SDS011;57876;47.792;12.960;2023-09-30T01:37:11;4.77;;;1.50;;
70433;SDS011;57876;47.792;12.960;2023-09-30T01:39:37;5.25;;;1.50;;
70433;SDS011;57876;47.792;12.960;2023-09-30T01:42:01;5.00;;;1.50;;
70433;SDS011;57876;47.792;12.960;2023-09-30T01:44:26;4.90;;;1.50;;
70433;SDS011;57876;47.792;12.960;2023-09-30T01:46:50;5.17;;;1.50;;
70433;SDS011;57876;47.792;12.960;2023-09-30T01:49:15;6.38;;;1.33;;
70433;SDS011;57876;47.792;12.960;2023-09-30T01:51:39;5.60;;;1.57;;
70433;SDS011;57876;47.792;12.960;2023-09-30T01:54:04;5.47;;;1.67;;
70433;SDS011;57876;47.792;12.960;2023-09-30T01:56:30;4.80;;;1.47;;
70433;SDS011;57876;47.792;12.960;2023-09-30T01:58:54;4.90;;;1.60;;
70433;SDS011;57876;47.792;12.960;2023-09-30T02:01:19;5.17;;;1.53;;
70433;SDS011;57876;47.792;12.960;2023-09-30T02:03:45;4.63;;;1.67;;
70433;SDS011;57876;47.792;12.960;2023-09-30T02:06:09;6.43;;;1.63;;
70433;SDS011;57876;47.792;12.960;2023-09-30T02:08:34;4.60;;;1.50;;
70433;SDS011;57876;47.792;12.960;2023-09-30T02:11:01;5.18;;;1.40;;
70433;SDS011;57876;47.792;12.960;2023-09-30T02:13:26;4.50;;;1.48;;
70433;SDS011;57876;47.792;12.960;2023-09-30T02:15:51;5.47;;;1.70;;
70433;SDS011;57876;47.792;12.960;2023-09-30T02:18:16;5.38;;;1.50;;
70433;SDS011;57876;47.792;12.960;2023-09-30T02:20:40;5.60;;;1.80;;
70433;SDS011;57876;47.792;12.960;2023-09-30T02:23:08;5.53;;;1.67;;
70433;SDS011;57876;47.792;12.960;2023-09-30T02:25:37;5.00;;;1.70;;
70433;SDS011;57876;47.792;12.960;2023-09-30T02:28:02;4.95;;;1.55;;
70433;SDS011;57876;47.792;12.960;2023-09-30T02:30:26;5.60;;;1.77;;
70433;SDS011;57876;47.792;12.960;2023-09-30T02:32:51;4.95;;;1.50;;
70433;SDS011;57876;47.792;12.960;2023-09-30T02:35:16;4.93;;;1.80;;
70433;SDS011;57876;47.792;12.960;2023-09-30T02:37:40;5.17;;;1.60;;
70433;SDS011;57876;47.792;12.960;2023-09-30T02:40:05;4.70;;;1.48;;
70433;SDS011;57876;47.792;12.960;2023-09-30T02:42:33;5.13;;;1.70;;
70433;SDS011;57876;47.792;12.960;2023-09-30T02:44:59;4.90;;;1.40;;
70433;SDS011;57876;47.792;12.960;2023-09-30T02:47:25;5.00;;;1.70;;
70433;SDS011;57876;47.792;12.960;2023-09-30T02:49:49;4.60;;;1.50;;
70433;SDS011;57876;47.792;12.960;2023-09-30T02:52:13;5.07;;;1.60;;
70433;SDS011;57876;47.792;12.960;2023-09-30T02:54:38;4.70;;;1.40;;
70433;SDS011;57876;47.792;12.960;2023-09-30T02:57:02;4.80;;;1.40;;
70433;SDS011;57876;47.792;12.960;2023-09-30T02:59:28;4.90;;;1.55;;
70433;SDS011;57876;47.792;12.960;2023-09-30T03:01:52;4.97;;;1.63;;
70433;SDS011;57876;47.792;12.960;2023-09-30T03:04:16;4.70;;;1.50;;
70433;SDS011;57876;47.792;12.960;2023-09-30T03:06:43;5.78;;;1.83;;
70433;SDS011;57876;47.792;12.960;2023-09-30T03:09:08;5.65;;;1.60;;
70433;SDS011;57876;47.792;12.960;2023-09-30T03:11:33;4.70;;;1.50;;
70433;SDS011;57876;47.792;12.960;2023-09-30T03:13:58;5.00;;;1.60;;
70433;SDS011;57876;47.792;12.960;2023-09-30T03:16:23;5.53;;;1.57;;
70433;SDS011;57876;47.792;12.960;2023-09-30T03:18:48;5.57;;;1.70;;
70433;SDS011;57876;47.792;12.960;2023-09-30T03:21:14;5.40;;;1.50;;
70433;SDS011;57876;47.792;12.960;2023-09-30T03:23:38;5.20;;;1.65;;
70433;SDS011;57876;47.792;12.960;2023-09-30T03:26:04;4.55;;;1.30;;
70433;SDS011;57876;47.792;12.960;2023-09-30T03:28:28;5.20;;;1.77;;
70433;SDS011;57876;47.792;12.960;2023-09-30T03:30:53;5.17;;;1.60;;
70433;SDS011;57876;47.792;12.960;2023-09-30T03:33:17;5.03;;;1.60;;
70433;SDS011;57876;47.792;12.960;2023-09-30T03:35:41;5.63;;;1.83;;
70433;SDS011;57876;47.792;12.960;2023-09-30T03:38:06;5.53;;;1.60;;
70433;SDS011;57876;47.792;12.960;2023-09-30T03:40:30;5.40;;;1.70;;
70433;SDS011;57876;47.792;12.960;2023-09-30T03:42:57;5.63;;;1.70;;
70433;SDS011;57876;47.792;12.960;2023-09-30T03:45:22;5.07;;;1.37;;
70433;SDS011;57876;47.792;12.960;2023-09-30T03:47:47;4.70;;;1.50;;
70433;SDS011;57876;47.792;12.960;2023-09-30T03:50:11;5.60;;;1.80;;
70433;SDS011;57876;47.792;12.960;2023-09-30T03:52:39;5.07;;;1.63;;
70433;SDS011;57876;47.792;12.960;2023-09-30T03:55:08;5.28;;;1.70;;
70433;SDS011;57876;47.792;12.960;2023-09-30T03:57:33;5.35;;;1.80;;
70433;SDS011;57876;47.792;12.960;2023-09-30T04:00:00;5.13;;;1.63;;
70433;SDS011;57876;47.792;12.960;2023-09-30T04:02:25;5.43;;;1.70;;
70433;SDS011;57876;47.792;12.960;2023-09-30T04:04:49;4.80;;;1.52;;
70433;SDS011;57876;47.792;12.960;2023-09-30T04:07:17;5.80;;;1.50;;
70433;SDS011;57876;47.792;12.960;2023-09-30T04:09:41;5.33;;;1.70;;
70433;SDS011;57876;47.792;12.960;2023-09-30T04:12:06;6.00;;;1.80;;
70433;SDS011;57876;47.792;12.960;2023-09-30T04:14:30;5.70;;;1.73;;
70433;SDS011;57876;47.792;12.960;2023-09-30T04:16:55;5.38;;;1.80;;
70433;SDS011;57876;47.792;12.960;2023-09-30T04:19:19;5.70;;;1.80;;
70433;SDS011;57876;47.792;12.960;2023-09-30T04:21:44;6.03;;;1.80;;
70433;SDS011;57876;47.792;12.960;2023-09-30T04:24:08;5.47;;;1.67;;
70433;SDS011;57876;47.792;12.960;2023-09-30T04:26:33;5.37;;;1.67;;
70433;SDS011;57876;47.792;12.960;2023-09-30T04:28:57;5.30;;;1.67;;
70433;SDS011;57876;47.792;12.960;2023-09-30T04:31:22;5.38;;;1.58;;
70433;SDS011;57876;47.792;12.960;2023-09-30T04:33:48;4.97;;;1.37;;
70433;SDS011;57876;47.792;12.960;2023-09-30T04:36:15;6.15;;;1.90;;
70433;SDS011;57876;47.792;12.960;2023-09-30T04:38:39;5.93;;;1.60;;
70433;SDS011;57876;47.792;12.960;2023-09-30T04:41:03;5.40;;;1.75;;
70433;SDS011;57876;47.792;12.960;2023-09-30T04:43:31;6.03;;;1.90;;
70433;SDS011;57876;47.792;12.960;2023-09-30T04:45:56;5.50;;;1.60;;
70433;SDS011;57876;47.792;12.960;2023-09-30T04:48:24;5.85;;;1.80;;
70433;SDS011;57876;47.792;12.960;2023-09-30T04:50:49;5.22;;;1.70;;
70433;SDS011;57876;47.792;12.960;2023-09-30T04:53:15;6.05;;;1.90;;
70433;SDS011;57876;47.792;12.960;2023-09-30T04:55:41;5.17;;;1.47;;
70433;SDS011;57876;47.792;12.960;2023-09-30T04:58:05;5.63;;;1.65;;
70433;SDS011;57876;47.792;12.960;2023-09-30T05:00:30;5.97;;;2.00;;
70433;SDS011;57876;47.792;12.960;2023-09-30T05:02:55;5.60;;;1.60;;
70433;SDS011;57876;47.792;12.960;2023-09-30T05:05:20;5.75;;;2.05;;
70433;SDS011;57876;47.792;12.960;2023-09-30T05:07:44;5.90;;;1.80;;
70433;SDS011;57876;47.792;12.960;2023-09-30T05:10:11;6.10;;;1.80;;
70433;SDS011;57876;47.792;12.960;2023-09-30T05:12:37;7.15;;;2.05;;
70433;SDS011;57876;47.792;12.960;2023-09-30T05:15:02;7.13;;;2.10;;
70433;SDS011;57876;47.792;12.960;2023-09-30T05:17:27;7.30;;;2.03;;
70433;SDS011;57876;47.792;12.960;2023-09-30T05:19:52;6.30;;;1.85;;
70433;SDS011;57876;47.792;12.960;2023-09-30T05:22:17;6.55;;;1.90;;
70433;SDS011;57876;47.792;12.960;2023-09-30T05:24:47;6.07;;;2.13;;
70433;SDS011;57876;47.792;12.960;2023-09-30T05:27:12;7.05;;;2.33;;
70433;SDS011;57876;47.792;12.960;2023-09-30T05:29:36;5.70;;;1.93;;
70433;SDS011;57876;47.792;12.960;2023-09-30T05:32:00;7.10;;;2.03;;
70433;SDS011;57876;47.792;12.960;2023-09-30T05:34:25;7.77;;;2.30;;
70433;SDS011;57876;47.792;12.960;2023-09-30T05:36:50;7.55;;;2.50;;
70433;SDS011;57876;47.792;12.960;2023-09-30T05:39:15;6.65;;;2.00;;
70433;SDS011;57876;47.792;12.960;2023-09-30T05:41:43;7.13;;;2.30;;
70433;SDS011;57876;47.792;12.960;2023-09-30T05:44:07;6.95;;;2.17;;
70433;SDS011;57876;47.792;12.960;2023-09-30T05:46:32;7.67;;;1.97;;
70433;SDS011;57876;47.792;12.960;2023-09-30T05:48:57;6.35;;;2.00;;
70433;SDS011;57876;47.792;12.960;2023-09-30T05:51:21;6.70;;;2.10;;
70433;SDS011;57876;47.792;12.960;2023-09-30T05:53:46;6.40;;;1.97;;
70433;SDS011;57876;47.792;12.960;2023-09-30T05:56:12;6.15;;;1.83;;
70433;SDS011;57876;47.792;12.960;2023-09-30T05:58:39;7.18;;;2.03;;
70433;SDS011;57876;47.792;12.960;2023-09-30T06:01:09;7.37;;;2.40;;
70433;SDS011;57876;47.792;12.960;2023-09-30T06:03:39;7.30;;;2.30;;
70433;SDS011;57876;47.792;12.960;2023-09-30T06:06:05;6.63;;;2.00;;
70433;SDS011;57876;47.792;12.960;2023-09-30T06:08:35;7.05;;;2.10;;
70433;SDS011;57876;47.792;12.960;2023-09-30T06:10:59;7.57;;;2.30;;
70433;SDS011;57876;47.792;12.960;2023-09-30T06:13:23;6.60;;;2.07;;
70433;SDS011;57876;47.792;12.960;2023-09-30T06:15:48;6.60;;;2.00;;
70433;SDS011;57876;47.792;12.960;2023-09-30T06:18:14;6.97;;;2.30;;
70433;SDS011;57876;47.792;12.960;2023-09-30T06:20:39;6.93;;;2.20;;
70433;SDS011;57876;47.792;12.960;2023-09-30T06:23:03;6.80;;;2.23;;
70433;SDS011;57876;47.792;12.960;2023-09-30T06:25:27;6.97;;;2.00;;
70433;SDS011;57876;47.792;12.960;2023-09-30T06:27:52;7.23;;;2.47;;
70433;SDS011;57876;47.792;12.960;2023-09-30T06:30:19;7.05;;;2.00;;
70433;SDS011;57876;47.792;12.960;2023-09-30T06:32:44;7.60;;;2.55;;
70433;SDS011;57876;47.792;12.960;2023-09-30T06:35:09;7.40;;;2.17;;
70433;SDS011;57876;47.792;12.960;2023-09-30T06:37:37;8.38;;;2.63;;
70433;SDS011;57876;47.792;12.960;2023-09-30T06:40:02;7.15;;;2.20;;
70433;SDS011;57876;47.792;12.960;2023-09-30T06:42:29;7.03;;;2.30;;
70433;SDS011;57876;47.792;12.960;2023-09-30T06:44:53;8.57;;;2.50;;
70433;SDS011;57876;47.792;12.960;2023-09-30T06:47:17;8.70;;;2.73;;
70433;SDS011;57876;47.792;12.960;2023-09-30T06:49:42;7.40;;;1.98;;
70433;SDS011;57876;47.792;12.960;2023-09-30T06:52:06;8.30;;;2.30;;
70433;SDS011;57876;47.792;12.960;2023-09-30T06:54:31;7.20;;;2.27;;
70433;SDS011;57876;47.792;12.960;2023-09-30T06:56:56;7.87;;;2.87;;
70433;SDS011;57876;47.792;12.960;2023-09-30T06:59:20;7.25;;;2.20;;
70433;SDS011;57876;47.792;12.960;2023-09-30T07:01:44;7.67;;;2.40;;
70433;SDS011;57876;47.792;12.960;2023-09-30T07:04:09;7.90;;;2.20;;
70433;SDS011;57876;47.792;12.960;2023-09-30T07:06:35;7.70;;;2.38;;
70433;SDS011;57876;47.792;12.960;2023-09-30T07:09:00;7.63;;;2.40;;
70433;SDS011;57876;47.792;12.960;2023-09-30T07:11:28;7.97;;;2.70;;
70433;SDS011;57876;47.792;12.960;2023-09-30T07:13:53;7.07;;;2.10;;
70433;SDS011;57876;47.792;12.960;2023-09-30T07:16:17;7.70;;;2.17;;
70433;SDS011;57876;47.792;12.960;2023-09-30T07:18:42;7.43;;;2.40;;
70433;SDS011;57876;47.792;12.960;2023-09-30T07:21:06;8.20;;;2.17;;
70433;SDS011;57876;47.792;12.960;2023-09-30T07:23:31;7.72;;;2.47;;
70433;SDS011;57876;47.792;12.960;2023-09-30T07:25:55;7.33;;;2.43;;
70433;SDS011;57876;47.792;12.960;2023-09-30T07:28:24;7.93;;;2.40;;
70433;SDS011;57876;47.792;12.960;2023-09-30T07:30:48;7.60;;;2.50;;
70433;SDS011;57876;47.792;12.960;2023-09-30T07:33:13;8.20;;;2.60;;
70433;SDS011;57876;47.792;12.960;2023-09-30T07:35:37;10.20;;;3.10;;
70433;SDS011;57876;47.792;12.960;2023-09-30T07:38:03;8.35;;;2.25;;
70433;SDS011;57876;47.792;12.960;2023-09-30T07:40:28;8.55;;;2.65;;
70433;SDS011;57876;47.792;12.960;2023-09-30T07:42:52;7.40;;;2.33;;
70433;SDS011;57876;47.792;12.960;2023-09-30T07:45:17;8.63;;;2.50;;
70433;SDS011;57876;47.792;12.960;2023-09-30T07:47:43;8.77;;;2.80;;
70433;SDS011;57876;47.792;12.960;2023-09-30T07:50:08;8.95;;;2.58;;
70433;SDS011;57876;47.792;12.960;2023-09-30T07:52:33;7.80;;;2.78;;
70433;SDS011;57876;47.792;12.960;2023-09-30T07:54:58;8.90;;;2.47;;
70433;SDS011;57876;47.792;12.960;2023-09-30T07:57:22;8.60;;;2.50;;
70433;SDS011;57876;47.792;12.960;2023-09-30T07:59:46;8.00;;;2.30;;
70433;SDS011;57876;47.792;12.960;2023-09-30T08:02:12;7.97;;;2.30;;
70433;SDS011;57876;47.792;12.960;2023-09-30T08:04:37;7.93;;;2.40;;
70433;SDS011;57876;47.792;12.960;2023-09-30T08:07:01;9.17;;;2.80;;
70433;SDS011;57876;47.792;12.960;2023-09-30T08:09:25;9.10;;;2.50;;
70433;SDS011;57876;47.792;12.960;2023-09-30T08:11:50;9.07;;;2.50;;
70433;SDS011;57876;47.792;12.960;2023-09-30T08:14:16;8.55;;;2.50;;
70433;SDS011;57876;47.792;12.960;2023-09-30T08:16:41;9.23;;;2.43;;
70433;SDS011;57876;47.792;12.960;2023-09-30T08:19:06;10.02;;;2.83;;
70433;SDS011;57876;47.792;12.960;2023-09-30T08:21:31;9.33;;;2.63;;
70433;SDS011;57876;47.792;12.960;2023-09-30T08:23:56;10.00;;;3.30;;
70433;SDS011;57876;47.792;12.960;2023-09-30T08:26:21;8.88;;;2.80;;
70433;SDS011;57876;47.792;12.960;2023-09-30T08:28:46;8.73;;;2.53;;
70433;SDS011;57876;47.792;12.960;2023-09-30T08:31:10;7.75;;;2.30;;
70433;SDS011;57876;47.792;12.960;2023-09-30T08:33:34;7.50;;;2.40;;
70433;SDS011;57876;47.792;12.960;2023-09-30T08:36:04;8.30;;;2.55;;
70433;SDS011;57876;47.792;12.960;2023-09-30T08:38:31;8.45;;;2.80;;
70433;SDS011;57876;47.792;12.960;2023-09-30T08:40:55;8.93;;;2.90;;
70433;SDS011;57876;47.792;12.960;2023-09-30T08:43:20;8.43;;;2.63;;
70433;SDS011;57876;47.792;12.960;2023-09-30T08:45:51;7.93;;;2.50;;
70433;SDS011;57876;47.792;12.960;2023-09-30T08:48:18;9.10;;;2.83;;
70433;SDS011;57876;47.792;12.960;2023-09-30T08:50:44;9.73;;;2.80;;
70433;SDS011;57876;47.792;12.960;2023-09-30T08:53:09;9.27;;;2.60;;
70433;SDS011;57876;47.792;12.960;2023-09-30T08:55:35;8.00;;;2.47;;
70433;SDS011;57876;47.792;12.960;2023-09-30T08:58:01;9.23;;;2.67;;
70433;SDS011;57876;47.792;12.960;2023-09-30T09:00:27;9.68;;;2.50;;
70433;SDS011;57876;47.792;12.960;2023-09-30T09:02:51;11.87;;;2.63;;
70433;SDS011;57876;47.792;12.960;2023-09-30T09:05:16;13.80;;;2.83;;
70433;SDS011;57876;47.792;12.960;2023-09-30T09:07:40;7.70;;;2.40;;
70433;SDS011;57876;47.792;12.960;2023-09-30T09:10:07;8.20;;;2.65;;
70433;SDS011;57876;47.792;12.960;2023-09-30T09:12:34;9.57;;;2.50;;
70433;SDS011;57876;47.792;12.960;2023-09-30T09:15:01;8.97;;;2.43;;
70433;SDS011;57876;47.792;12.960;2023-09-30T09:17:39;9.45;;;3.17;;
70433;SDS011;57876;47.792;12.960;2023-09-30T09:20:08;9.27;;;2.65;;
70433;SDS011;57876;47.792;12.960;2023-09-30T09:22:41;7.53;;;2.00;;
70433;SDS011;57876;47.792;12.960;2023-09-30T09:25:06;8.70;;;2.50;;
70433;SDS011;57876;47.792;12.960;2023-09-30T09:27:33;9.20;;;3.00;;
70433;SDS011;57876;47.792;12.960;2023-09-30T09:30:13;9.13;;;2.70;;
70433;SDS011;57876;47.792;12.960;2023-09-30T09:32:59;10.13;;;2.47;;
70433;SDS011;57876;47.792;12.960;2023-09-30T09:35:30;9.00;;;2.53;;
70433;SDS011;57876;47.792;12.960;2023-09-30T09:38:04;8.25;;;2.50;;
70433;SDS011;57876;47.792;12.960;2023-09-30T09:40:30;8.32;;;2.67;;
70433;SDS011;57876;47.792;12.960;2023-09-30T09:43:04;8.02;;;2.60;;
70433;SDS011;57876;47.792;12.960;2023-09-30T09:45:30;9.88;;;3.13;;
70433;SDS011;57876;47.792;12.960;2023-09-30T09:47:57;10.77;;;3.00;;
70433;SDS011;57876;47.792;12.960;2023-09-30T09:50:22;9.15;;;2.90;;
70433;SDS011;57876;47.792;12.960;2023-09-30T09:52:47;8.80;;;2.80;;
70433;SDS011;57876;47.792;12.960;2023-09-30T09:55:15;9.82;;;2.70;;
70433;SDS011;57876;47.792;12.960;2023-09-30T09:57:41;7.90;;;2.58;;
70433;SDS011;57876;47.792;12.960;2023-09-30T10:00:07;8.97;;;2.90;;
70433;SDS011;57876;47.792;12.960;2023-09-30T10:02:39;9.63;;;3.00;;
70433;SDS011;57876;47.792;12.960;2023-09-30T10:05:04;10.23;;;2.58;;
70433;SDS011;57876;47.792;12.960;2023-09-30T10:07:30;9.40;;;3.00;;
70433;SDS011;57876;47.792;12.960;2023-09-30T10:10:00;9.30;;;2.83;;
70433;SDS011;57876;47.792;12.960;2023-09-30T10:12:27;9.50;;;2.93;;
70433;SDS011;57876;47.792;12.960;2023-09-30T10:14:52;9.32;;;2.90;;
70433;SDS011;57876;47.792;12.960;2023-09-30T10:17:17;9.30;;;3.10;;
70433;SDS011;57876;47.792;12.960;2023-09-30T10:22:31;9.73;;;2.63;;
70433;SDS011;57876;47.792;12.960;2023-09-30T10:24:56;9.48;;;2.67;;
70433;SDS011;57876;47.792;12.960;2023-09-30T10:35:41;10.15;;;2.78;;
70433;SDS011;57876;47.792;12.960;2023-09-30T10:40:47;12.23;;;3.00;;
70433;SDS011;57876;47.792;12.960;2023-09-30T10:43:31;8.80;;;2.80;;
70433;SDS011;57876;47.792;12.960;2023-09-30T10:45:59;9.52;;;2.60;;
70433;SDS011;57876;47.792;12.960;2023-09-30T10:50:49;8.23;;;2.70;;
70433;SDS011;57876;47.792;12.960;2023-09-30T10:53:14;10.60;;;3.17;;
70433;SDS011;57876;47.792;12.960;2023-09-30T10:55:39;9.50;;;3.20;;
70433;SDS011;57876;47.792;12.960;2023-09-30T10:58:06;8.68;;;2.78;;
70433;SDS011;57876;47.792;12.960;2023-09-30T11:00:30;10.10;;;3.30;;
70433;SDS011;57876;47.792;12.960;2023-09-30T11:02:55;9.23;;;2.87;;
70433;SDS011;57876;47.792;12.960;2023-09-30T11:05:20;10.00;;;3.22;;
70433;SDS011;57876;47.792;12.960;2023-09-30T11:07:46;9.67;;;3.30;;
70433;SDS011;57876;47.792;12.960;2023-09-30T11:10:15;9.02;;;2.90;;
70433;SDS011;57876;47.792;12.960;2023-09-30T11:12:52;9.18;;;3.10;;
70433;SDS011;57876;47.792;12.960;2023-09-30T11:15:20;9.88;;;2.92;;
70433;SDS011;57876;47.792;12.960;2023-09-30T11:17:45;10.20;;;3.07;;
70433;SDS011;57876;47.792;12.960;2023-09-30T11:20:09;8.13;;;2.50;;
70433;SDS011;57876;47.792;12.960;2023-09-30T11:22:34;9.83;;;2.80;;
70433;SDS011;57876;47.792;12.960;2023-09-30T11:24:58;10.03;;;3.17;;
70433;SDS011;57876;47.792;12.960;2023-09-30T11:27:23;8.55;;;2.58;;
70433;SDS011;57876;47.792;12.960;2023-09-30T11:29:51;11.10;;;3.47;;
70433;SDS011;57876;47.792;12.960;2023-09-30T11:32:25;9.38;;;2.95;;
70433;SDS011;57876;47.792;12.960;2023-09-30T11:34:51;9.43;;;3.17;;
70433;SDS011;57876;47.792;12.960;2023-09-30T11:37:15;9.93;;;2.70;;
70433;SDS011;57876;47.792;12.960;2023-09-30T11:39:41;10.80;;;3.08;;
70433;SDS011;57876;47.792;12.960;2023-09-30T11:42:14;11.63;;;3.00;;
70433;SDS011;57876;47.792;12.960;2023-09-30T11:44:44;10.10;;;3.00;;
70433;SDS011;57876;47.792;12.960;2023-09-30T11:47:10;9.57;;;2.60;;
70433;SDS011;57876;47.792;12.960;2023-09-30T11:49:39;10.23;;;3.22;;
70433;SDS011;57876;47.792;12.960;2023-09-30T11:52:12;8.80;;;3.03;;
70433;SDS011;57876;47.792;12.960;2023-09-30T11:54:38;11.65;;;3.28;;
70433;SDS011;57876;47.792;12.960;2023-09-30T11:57:14;12.87;;;3.53;;
70433;SDS011;57876;47.792;12.960;2023-09-30T11:59:39;12.00;;;3.70;;
70433;SDS011;57876;47.792;12.960;2023-09-30T12:02:05;12.15;;;3.47;;
70433;SDS011;57876;47.792;12.960;2023-09-30T12:04:32;12.63;;;3.30;;
70433;SDS011;57876;47.792;12.960;2023-09-30T12:06:57;11.03;;;3.70;;
70433;SDS011;57876;47.792;12.960;2023-09-30T12:09:22;11.77;;;3.55;;
70433;SDS011;57876;47.792;12.960;2023-09-30T12:11:46;11.93;;;3.37;;
70433;SDS011;57876;47.792;12.960;2023-09-30T12:14:12;10.40;;;3.20;;
70433;SDS011;57876;47.792;12.960;2023-09-30T12:16:39;9.50;;;2.72;;
70433;SDS011;57876;47.792;12.960;2023-09-30T12:19:05;11.43;;;3.35;;
70433;SDS011;57876;47.792;12.960;2023-09-30T12:21:32;11.27;;;3.10;;
70433;SDS011;57876;47.792;12.960;2023-09-30T12:23:58;10.48;;;3.35;;
70433;SDS011;57876;47.792;12.960;2023-09-30T12:26:23;9.93;;;3.20;;
70433;SDS011;57876;47.792;12.960;2023-09-30T12:28:48;9.63;;;2.88;;
70433;SDS011;57876;47.792;12.960;2023-09-30T12:31:12;10.70;;;3.20;;
70433;SDS011;57876;47.792;12.960;2023-09-30T12:33:37;11.25;;;3.00;;
70433;SDS011;57876;47.792;12.960;2023-09-30T12:36:02;8.57;;;2.63;;
70433;SDS011;57876;47.792;12.960;2023-09-30T12:38:26;10.30;;;3.10;;
70433;SDS011;57876;47.792;12.960;2023-09-30T12:40:52;11.23;;;3.47;;
70433;SDS011;57876;47.792;12.960;2023-09-30T12:43:17;10.40;;;3.20;;
70433;SDS011;57876;47.792;12.960;2023-09-30T12:45:42;11.07;;;3.20;;
70433;SDS011;57876;47.792;12.960;2023-09-30T12:48:06;10.88;;;3.30;;
70433;SDS011;57876;47.792;12.960;2023-09-30T12:50:31;9.33;;;2.90;;
70433;SDS011;57876;47.792;12.960;2023-09-30T12:52:55;12.43;;;3.40;;
70433;SDS011;57876;47.792;12.960;2023-09-30T12:55:20;11.77;;;3.13;;
70433;SDS011;57876;47.792;12.960;2023-09-30T12:57:44;10.50;;;3.40;;
70433;SDS011;57876;47.792;12.960;2023-09-30T13:00:08;9.53;;;3.07;;
70433;SDS011;57876;47.792;12.960;2023-09-30T13:02:33;11.50;;;3.87;;
70433;SDS011;57876;47.792;12.960;2023-09-30T13:04:58;9.57;;;2.80;;
70433;SDS011;57876;47.792;12.960;2023-09-30T13:07:22;10.60;;;2.60;;
70433;SDS011;57876;47.792;12.960;2023-09-30T13:09:48;10.35;;;3.10;;
70433;SDS011;57876;47.792;12.960;2023-09-30T13:12:13;9.90;;;2.90;;
70433;SDS011;57876;47.792;12.960;2023-09-30T13:14:37;9.83;;;2.83;;
70433;SDS011;57876;47.792;12.960;2023-09-30T13:17:02;10.52;;;3.10;;
70433;SDS011;57876;47.792;12.960;2023-09-30T13:19:27;9.60;;;2.85;;
70433;SDS011;57876;47.792;12.960;2023-09-30T13:21:52;9.17;;;2.67;;
70433;SDS011;57876;47.792;12.960;2023-09-30T13:24:17;11.87;;;3.30;;
70433;SDS011;57876;47.792;12.960;2023-09-30T13:26:41;9.97;;;2.93;;
70433;SDS011;57876;47.792;12.960;2023-09-30T13:29:05;9.93;;;3.07;;
70433;SDS011;57876;47.792;12.960;2023-09-30T13:31:36;10.90;;;3.30;;
70433;SDS011;57876;47.792;12.960;2023-09-30T13:34:03;11.10;;;3.47;;
70433;SDS011;57876;47.792;12.960;2023-09-30T13:36:31;10.43;;;3.17;;
70433;SDS011;57876;47.792;12.960;2023-09-30T13:38:56;10.90;;;3.28;;
70433;SDS011;57876;47.792;12.960;2023-09-30T13:41:20;11.90;;;3.50;;
70433;SDS011;57876;47.792;12.960;2023-09-30T13:43:44;10.60;;;3.20;;
70433;SDS011;57876;47.792;12.960;2023-09-30T13:46:09;10.40;;;3.25;;
70433;SDS011;57876;47.792;12.960;2023-09-30T13:48:34;12.60;;;3.10;;
70433;SDS011;57876;47.792;12.960;2023-09-30T13:51:08;9.60;;;2.67;;
70433;SDS011;57876;47.792;12.960;2023-09-30T13:53:33;11.25;;;2.75;;
70433;SDS011;57876;47.792;12.960;2023-09-30T13:55:58;9.23;;;3.13;;
70433;SDS011;57876;47.792;12.960;2023-09-30T13:58:22;10.90;;;3.37;;
70433;SDS011;57876;47.792;12.960;2023-09-30T14:00:47;10.73;;;3.13;;
70433;SDS011;57876;47.792;12.960;2023-09-30T14:03:12;9.90;;;3.00;;
70433;SDS011;57876;47.792;12.960;2023-09-30T14:05:37;9.43;;;3.00;;
70433;SDS011;57876;47.792;12.960;2023-09-30T14:08:02;9.83;;;3.00;;
70433;SDS011;57876;47.792;12.960;2023-09-30T14:10:27;10.90;;;3.17;;
70433;SDS011;57876;47.792;12.960;2023-09-30T14:12:53;10.45;;;3.25;;
70433;SDS011;57876;47.792;12.960;2023-09-30T14:15:18;10.98;;;3.10;;
70433;SDS011;57876;47.792;12.960;2023-09-30T14:17:42;9.80;;;3.10;;
70433;SDS011;57876;47.792;12.960;2023-09-30T14:20:09;10.70;;;3.33;;
70433;SDS011;57876;47.792;12.960;2023-09-30T14:22:33;11.97;;;3.60;;
70433;SDS011;57876;47.792;12.960;2023-09-30T14:24:58;11.05;;;3.17;;
70433;SDS011;57876;47.792;12.960;2023-09-30T14:27:22;10.23;;;2.87;;
70433;SDS011;57876;47.792;12.960;2023-09-30T14:29:47;10.40;;;3.43;;
70433;SDS011;57876;47.792;12.960;2023-09-30T14:32:11;11.53;;;2.83;;
70433;SDS011;57876;47.792;12.960;2023-09-30T14:34:35;8.90;;;2.73;;
70433;SDS011;57876;47.792;12.960;2023-09-30T14:37:00;11.83;;;3.70;;
70433;SDS011;57876;47.792;12.960;2023-09-30T14:39:24;10.87;;;3.40;;